createdAt,value
2023-05-12T14:06:22.134Z,13.50
2023-05-12T14:08:49.116Z,13.70
2023-05-12T14:11:16.793Z,13.80
2023-05-12T14:13:43.694Z,13.50
2023-05-12T14:16:12.687Z,13.70
2023-05-12T14:18:40.793Z,13.80
2023-05-12T14:21:09.217Z,13.90
2023-05-12T14:23:36.518Z,14.00
2023-05-12T14:26:04.308Z,14.30
2023-05-12T14:28:31.203Z,14.60
2023-05-12T14:30:57.950Z,14.10
2023-05-12T14:33:24.629Z,13.80
2023-05-12T14:36:03.194Z,13.40
2023-05-12T14:38:33.249Z,13.50
2023-05-12T14:40:59.983Z,14.10
2023-05-12T14:43:26.671Z,14.00
2023-05-12T14:45:54.859Z,13.80
2023-05-12T14:48:23.312Z,14.10
2023-05-12T14:50:54.231Z,14.50
2023-05-12T14:53:21.108Z,14.50
2023-05-12T14:55:49.005Z,13.90
2023-05-12T14:58:17.607Z,13.60
2023-05-12T15:00:44.954Z,13.40
2023-05-12T15:03:12.143Z,13.20
2023-05-12T15:05:56.758Z,13.10
2023-05-12T15:08:25.791Z,12.90
2023-05-12T15:10:52.481Z,12.90
2023-05-12T15:13:20.740Z,13.00
2023-05-12T15:15:47.462Z,13.10
2023-05-12T15:18:14.284Z,13.10
2023-05-12T15:20:41.163Z,12.80
2023-05-12T15:23:07.874Z,12.80
2023-05-12T15:25:34.628Z,13.00
2023-05-12T15:28:01.312Z,13.30
2023-05-12T15:30:28.013Z,13.60
2023-05-12T15:32:54.811Z,13.50
2023-05-12T15:35:21.847Z,13.40
2023-05-12T15:37:48.812Z,13.20
2023-05-12T15:40:15.612Z,12.80
2023-05-12T15:42:42.297Z,13.10
2023-05-12T15:45:09.690Z,13.50
2023-05-12T15:47:36.577Z,13.60
2023-05-12T15:50:04.265Z,13.40
2023-05-12T15:52:31.191Z,13.20
2023-05-12T15:54:57.940Z,13.10
2023-05-12T15:57:24.711Z,12.90
2023-05-12T15:59:57.562Z,13.00
2023-05-12T16:02:24.370Z,13.20
2023-05-12T16:04:51.134Z,13.20
2023-05-12T16:07:17.902Z,13.10
2023-05-12T16:09:44.666Z,12.80
2023-05-12T16:12:11.767Z,13.00
2023-05-12T16:14:38.734Z,13.00
2023-05-12T16:17:05.837Z,12.80
2023-05-12T16:19:32.548Z,12.80
2023-05-12T16:22:00.227Z,12.70
2023-05-12T16:24:28.604Z,12.60
2023-05-12T16:26:56.227Z,12.60
2023-05-12T16:29:22.983Z,12.50
2023-05-12T16:31:49.719Z,12.40
2023-05-12T16:34:16.750Z,12.50
2023-05-12T16:36:43.506Z,12.20
2023-05-12T16:39:10.316Z,12.10
2023-05-12T16:41:37.238Z,12.10
2023-05-12T16:44:04.284Z,12.10
2023-05-12T16:46:32.737Z,12.20
2023-05-12T16:48:59.561Z,11.90
2023-05-12T16:51:30.404Z,11.80
2023-05-12T16:53:59.892Z,11.80
2023-05-12T16:56:27.462Z,11.80
2023-05-12T16:58:54.198Z,11.70
2023-05-12T17:01:21.079Z,11.60
2023-05-12T17:03:48.015Z,11.50
2023-05-12T17:06:14.860Z,11.50
2023-05-12T17:08:41.668Z,11.50
2023-05-12T17:11:08.556Z,11.50
2023-05-12T17:13:37.464Z,11.50
2023-05-12T17:16:04.392Z,11.40
2023-05-12T17:18:31.723Z,11.30
2023-05-12T17:20:58.915Z,11.20
2023-05-12T17:23:26.826Z,11.30
2023-05-12T17:25:53.753Z,11.30
2023-05-12T17:28:21.149Z,11.20
2023-05-12T17:30:48.120Z,11.20
2023-05-12T17:33:15.632Z,11.10
2023-05-12T17:35:42.612Z,11.00
2023-05-12T17:38:09.432Z,11.10
2023-05-12T17:40:36.157Z,11.10
2023-05-12T17:43:03.342Z,11.10
2023-05-12T17:45:30.127Z,11.00
2023-05-12T17:47:56.946Z,11.00
2023-05-12T17:50:23.813Z,11.00
2023-05-12T17:52:50.539Z,10.90
2023-05-12T17:55:17.503Z,10.90
2023-05-12T17:57:44.453Z,10.90
2023-05-12T18:00:11.794Z,10.90
2023-05-12T18:02:39.179Z,11.00
2023-05-12T18:05:06.684Z,10.90
2023-05-12T18:07:33.821Z,10.90
2023-05-12T18:10:00.868Z,10.90
2023-05-12T18:12:27.698Z,10.90
2023-05-12T18:14:54.544Z,10.80
2023-05-12T18:17:21.425Z,10.80
2023-05-12T18:19:48.373Z,10.80
2023-05-12T18:22:16.829Z,10.70
2023-05-12T18:24:43.659Z,10.80
2023-05-12T18:27:10.442Z,10.70
2023-05-12T18:29:37.188Z,10.60
2023-05-12T18:32:04.274Z,10.50
2023-05-12T18:34:31.155Z,10.50
2023-05-12T18:36:57.865Z,10.50
2023-05-12T18:39:25.027Z,10.50
2023-05-12T18:41:53.237Z,10.50
2023-05-12T18:44:19.929Z,10.50
2023-05-12T18:46:46.656Z,10.50
2023-05-12T18:49:13.380Z,10.60
2023-05-12T18:51:40.085Z,10.60
2023-05-12T18:54:06.772Z,10.50
2023-05-12T18:56:33.511Z,10.60
2023-05-12T18:59:00.301Z,10.50
2023-05-12T19:01:27.954Z,10.50
2023-05-12T19:03:55.060Z,10.60
2023-05-12T19:06:21.755Z,10.50
2023-05-12T19:08:48.514Z,10.50
2023-05-12T19:11:15.224Z,10.40
2023-05-12T19:13:45.128Z,10.40
2023-05-12T19:16:12.040Z,10.40
2023-05-12T19:18:38.817Z,10.40
2023-05-12T19:21:05.643Z,10.50
2023-05-12T19:23:32.378Z,10.50
2023-05-12T19:25:59.055Z,10.50
2023-05-12T19:28:25.896Z,10.40
2023-05-12T19:30:54.873Z,10.40
2023-05-12T19:33:22.152Z,10.40
2023-05-12T19:35:48.999Z,10.40
2023-05-12T19:38:15.991Z,10.40
2023-05-12T19:40:42.678Z,10.30
2023-05-12T19:43:10.670Z,10.40
2023-05-12T19:45:37.476Z,10.30
2023-05-12T19:48:04.690Z,10.30
2023-05-12T19:50:31.653Z,10.20
2023-05-12T19:52:58.431Z,10.20
2023-05-12T19:55:25.288Z,10.30
2023-05-12T19:57:52.046Z,10.30
2023-05-12T20:00:19.443Z,10.20
2023-05-12T20:02:46.315Z,10.00
2023-05-12T20:05:13.208Z,9.90
2023-05-12T20:07:39.919Z,9.80
2023-05-12T20:10:07.092Z,9.80
2023-05-12T20:12:34.070Z,9.70
2023-05-12T20:15:00.836Z,9.70
2023-05-12T20:17:27.554Z,9.70
2023-05-12T20:19:54.423Z,9.80
2023-05-12T20:22:21.951Z,9.80
2023-05-12T20:24:48.650Z,9.80
2023-05-12T20:27:15.368Z,9.80
2023-05-12T20:29:42.138Z,9.80
2023-05-12T20:32:08.864Z,9.80
2023-05-12T20:34:35.568Z,9.90
2023-05-12T20:37:02.303Z,9.90
2023-05-12T20:39:29.049Z,9.90
2023-05-12T20:41:55.768Z,10.10
2023-05-12T20:44:22.846Z,10.00
2023-05-12T20:46:49.716Z,10.00
2023-05-12T20:49:16.502Z,10.10
2023-05-12T20:51:43.190Z,10.00
2023-05-12T20:54:09.901Z,10.10
2023-05-12T20:56:36.620Z,10.10
2023-05-12T20:59:03.388Z,10.00
2023-05-12T21:01:30.147Z,10.10
2023-05-12T21:03:57.017Z,10.10
2023-05-12T21:06:23.804Z,10.10
2023-05-12T21:08:50.514Z,10.00
2023-05-12T21:11:18.573Z,10.00
2023-05-12T21:13:47.225Z,9.90
2023-05-12T21:16:14.849Z,10.00
2023-05-12T21:18:41.642Z,9.90
2023-05-12T21:21:08.484Z,9.90
2023-05-12T21:23:36.440Z,9.90
2023-05-12T21:26:03.606Z,9.90
2023-05-12T21:28:30.944Z,9.90
2023-05-12T21:30:57.637Z,9.90
2023-05-12T21:33:24.558Z,9.90
2023-05-12T21:35:51.300Z,9.90
2023-05-12T21:38:18.018Z,10.00
2023-05-12T21:40:48.868Z,9.90
2023-05-12T21:43:15.592Z,9.90
2023-05-12T21:45:42.289Z,9.90
2023-05-12T21:48:09.087Z,9.90
2023-05-12T21:50:35.878Z,9.90
2023-05-12T21:53:02.572Z,9.90
2023-05-12T21:55:29.437Z,9.90
2023-05-12T21:57:56.463Z,9.90
2023-05-12T22:00:23.457Z,10.00
2023-05-12T22:02:51.328Z,9.90
2023-05-12T22:05:18.190Z,9.80
2023-05-12T22:07:44.968Z,9.90
2023-05-12T22:10:11.931Z,9.80
2023-05-12T22:12:38.660Z,9.80
2023-05-12T22:15:06.197Z,9.80
2023-05-12T22:20:57.804Z,9.70
2023-05-12T22:23:24.701Z,9.80
2023-05-12T22:25:51.458Z,10.00
2023-05-12T22:28:18.218Z,9.80
2023-05-12T22:30:44.964Z,9.80
2023-05-12T22:37:04.053Z,9.80
2023-05-12T22:39:30.852Z,9.80
2023-05-12T22:44:44.591Z,9.90
2023-05-12T22:51:33.716Z,9.80
2023-05-12T22:54:00.421Z,9.80
2023-05-12T22:56:27.129Z,9.80
2023-05-12T22:58:53.846Z,9.80
2023-05-12T23:05:04.575Z,9.70
2023-05-12T23:07:31.562Z,9.60
2023-05-12T23:09:58.313Z,9.50
2023-05-12T23:12:25.127Z,9.50
